sensor_id;sensor_type;location;lat;lon;timestamp;temperature;humidity
17027;DHT22;8630;50.500;12.164;2022-07-29T00:01:02;16.80;90.70
17027;DHT22;8630;50.500;12.164;2022-07-29T00:03:29;16.80;90.80
17027;DHT22;8630;50.500;12.164;2022-07-29T00:05:56;16.80;90.90
17027;DHT22;8630;50.500;12.164;2022-07-29T00:08:24;16.80;91.10
17027;DHT22;8630;50.500;12.164;2022-07-29T00:10:52;16.80;91.20
17027;DHT22;8630;50.500;12.164;2022-07-29T00:13:19;16.80;91.30
17027;DHT22;8630;50.500;12.164;2022-07-29T00:15:46;16.80;91.40
17027;DHT22;8630;50.500;12.164;2022-07-29T00:18:14;16.80;91.50
17027;DHT22;8630;50.500;12.164;2022-07-29T00:20:41;16.80;91.50
17027;DHT22;8630;50.500;12.164;2022-07-29T00:23:08;16.80;91.60
17027;DHT22;8630;50.500;12.164;2022-07-29T00:25:35;16.80;91.60
17027;DHT22;8630;50.500;12.164;2022-07-29T00:28:05;16.80;91.70
17027;DHT22;8630;50.500;12.164;2022-07-29T00:30:32;16.80;91.70
17027;DHT22;8630;50.500;12.164;2022-07-29T00:32:59;16.90;91.80
17027;DHT22;8630;50.500;12.164;2022-07-29T00:35:26;16.80;91.90
17027;DHT22;8630;50.500;12.164;2022-07-29T00:38:11;16.90;92.30
17027;DHT22;8630;50.500;12.164;2022-07-29T00:40:39;16.80;92.00
17027;DHT22;8630;50.500;12.164;2022-07-29T00:43:08;16.80;92.20
17027;DHT22;8630;50.500;12.164;2022-07-29T00:45:36;16.80;92.30
17027;DHT22;8630;50.500;12.164;2022-07-29T00:48:03;16.70;92.30
17027;DHT22;8630;50.500;12.164;2022-07-29T00:50:31;16.70;92.40
17027;DHT22;8630;50.500;12.164;2022-07-29T00:52:59;16.70;92.50
17027;DHT22;8630;50.500;12.164;2022-07-29T00:55:27;16.70;92.60
17027;DHT22;8630;50.500;12.164;2022-07-29T00:57:55;16.70;92.70
17027;DHT22;8630;50.500;12.164;2022-07-29T01:00:25;16.60;92.70
17027;DHT22;8630;50.500;12.164;2022-07-29T01:02:53;16.60;92.90
17027;DHT22;8630;50.500;12.164;2022-07-29T01:05:21;16.60;93.00
17027;DHT22;8630;50.500;12.164;2022-07-29T01:07:51;16.60;93.10
17027;DHT22;8630;50.500;12.164;2022-07-29T01:10:20;16.50;93.20
17027;DHT22;8630;50.500;12.164;2022-07-29T01:12:49;16.60;93.10
17027;DHT22;8630;50.500;12.164;2022-07-29T01:15:16;16.60;92.90
17027;DHT22;8630;50.500;12.164;2022-07-29T01:17:52;16.60;92.80
17027;DHT22;8630;50.500;12.164;2022-07-29T01:20:26;16.60;92.60
17027;DHT22;8630;50.500;12.164;2022-07-29T01:26:27;16.60;92.60
17027;DHT22;8630;50.500;12.164;2022-07-29T01:29:02;16.60;92.70
17027;DHT22;8630;50.500;12.164;2022-07-29T01:31:36;16.60;92.80
17027;DHT22;8630;50.500;12.164;2022-07-29T01:34:07;16.50;93.00
17027;DHT22;8630;50.500;12.164;2022-07-29T01:36:37;16.50;93.10
17027;DHT22;8630;50.500;12.164;2022-07-29T01:39:10;16.50;93.20
17027;DHT22;8630;50.500;12.164;2022-07-29T01:41:46;16.50;93.40
17027;DHT22;8630;50.500;12.164;2022-07-29T01:44:20;16.40;93.60
17027;DHT22;8630;50.500;12.164;2022-07-29T01:46:52;16.40;93.70
17027;DHT22;8630;50.500;12.164;2022-07-29T01:49:24;16.40;93.80
17027;DHT22;8630;50.500;12.164;2022-07-29T01:51:57;16.40;93.90
17027;DHT22;8630;50.500;12.164;2022-07-29T01:54:30;16.40;94.10
17027;DHT22;8630;50.500;12.164;2022-07-29T01:56:59;16.40;94.20
17027;DHT22;8630;50.500;12.164;2022-07-29T01:59:29;16.40;94.30
17027;DHT22;8630;50.500;12.164;2022-07-29T02:01:58;16.40;94.40
17027;DHT22;8630;50.500;12.164;2022-07-29T02:04:27;16.40;94.40
17027;DHT22;8630;50.500;12.164;2022-07-29T02:06:58;16.40;94.50
17027;DHT22;8630;50.500;12.164;2022-07-29T02:09:29;16.40;94.60
17027;DHT22;8630;50.500;12.164;2022-07-29T02:11:57;16.40;94.60
17027;DHT22;8630;50.500;12.164;2022-07-29T02:14:31;16.40;94.60
17027;DHT22;8630;50.500;12.164;2022-07-29T02:17:00;16.40;94.70
17027;DHT22;8630;50.500;12.164;2022-07-29T02:19:29;16.40;94.70
17027;DHT22;8630;50.500;12.164;2022-07-29T02:21:58;16.40;94.80
17027;DHT22;8630;50.500;12.164;2022-07-29T02:24:28;16.40;94.80
17027;DHT22;8630;50.500;12.164;2022-07-29T02:26:58;16.40;94.80
17027;DHT22;8630;50.500;12.164;2022-07-29T02:29:30;16.40;94.80
17027;DHT22;8630;50.500;12.164;2022-07-29T02:31:59;16.40;94.90
17027;DHT22;8630;50.500;12.164;2022-07-29T02:34:30;16.40;94.90
17027;DHT22;8630;50.500;12.164;2022-07-29T02:36:58;16.40;95.00
17027;DHT22;8630;50.500;12.164;2022-07-29T02:39:28;16.40;95.00
17027;DHT22;8630;50.500;12.164;2022-07-29T02:41:58;16.40;95.00
17027;DHT22;8630;50.500;12.164;2022-07-29T02:44:28;16.40;95.10
17027;DHT22;8630;50.500;12.164;2022-07-29T02:47:01;16.40;95.10
17027;DHT22;8630;50.500;12.164;2022-07-29T02:49:34;16.30;95.20
17027;DHT22;8630;50.500;12.164;2022-07-29T02:52:05;16.40;95.40
17027;DHT22;8630;50.500;12.164;2022-07-29T02:54:38;16.40;95.40
17027;DHT22;8630;50.500;12.164;2022-07-29T02:57:11;16.40;95.30
17027;DHT22;8630;50.500;12.164;2022-07-29T02:59:43;16.40;95.20
17027;DHT22;8630;50.500;12.164;2022-07-29T03:02:13;16.40;95.00
17027;DHT22;8630;50.500;12.164;2022-07-29T03:04:42;16.40;94.90
17027;DHT22;8630;50.500;12.164;2022-07-29T03:07:13;16.40;94.80
17027;DHT22;8630;50.500;12.164;2022-07-29T03:09:41;16.40;94.80
17027;DHT22;8630;50.500;12.164;2022-07-29T03:12:09;16.40;94.80
17027;DHT22;8630;50.500;12.164;2022-07-29T03:14:37;16.50;94.80
17027;DHT22;8630;50.500;12.164;2022-07-29T03:17:07;16.40;94.70
17027;DHT22;8630;50.500;12.164;2022-07-29T03:19:36;16.40;94.70
17027;DHT22;8630;50.500;12.164;2022-07-29T03:22:03;16.40;94.60
17027;DHT22;8630;50.500;12.164;2022-07-29T03:24:33;16.40;94.60
17027;DHT22;8630;50.500;12.164;2022-07-29T03:27:01;16.40;94.70
17027;DHT22;8630;50.500;12.164;2022-07-29T03:29:29;16.30;94.90
17027;DHT22;8630;50.500;12.164;2022-07-29T03:31:56;16.20;95.00
17027;DHT22;8630;50.500;12.164;2022-07-29T03:34:27;16.20;95.10
17027;DHT22;8630;50.500;12.164;2022-07-29T03:36:54;16.10;95.30
17027;DHT22;8630;50.500;12.164;2022-07-29T03:39:23;16.10;95.40
17027;DHT22;8630;50.500;12.164;2022-07-29T03:41:55;16.10;95.50
17027;DHT22;8630;50.500;12.164;2022-07-29T03:44:23;16.10;95.60
17027;DHT22;8630;50.500;12.164;2022-07-29T03:46:59;16.10;95.80
17027;DHT22;8630;50.500;12.164;2022-07-29T03:49:29;16.10;95.80
17027;DHT22;8630;50.500;12.164;2022-07-29T03:51:57;16.00;95.90
17027;DHT22;8630;50.500;12.164;2022-07-29T03:54:26;16.00;96.00
17027;DHT22;8630;50.500;12.164;2022-07-29T03:56:54;16.00;96.10
17027;DHT22;8630;50.500;12.164;2022-07-29T03:59:23;16.00;96.20
17027;DHT22;8630;50.500;12.164;2022-07-29T04:01:51;16.00;96.20
17027;DHT22;8630;50.500;12.164;2022-07-29T04:04:19;16.00;96.30
17027;DHT22;8630;50.500;12.164;2022-07-29T04:06:49;16.00;96.50
17027;DHT22;8630;50.500;12.164;2022-07-29T04:09:15;16.00;96.60
17027;DHT22;8630;50.500;12.164;2022-07-29T04:11:42;16.00;96.70
17027;DHT22;8630;50.500;12.164;2022-07-29T04:14:10;16.00;96.70
17027;DHT22;8630;50.500;12.164;2022-07-29T04:16:37;16.10;96.80
17027;DHT22;8630;50.500;12.164;2022-07-29T04:19:04;16.10;96.80
17027;DHT22;8630;50.500;12.164;2022-07-29T04:21:36;16.20;96.90
17027;DHT22;8630;50.500;12.164;2022-07-29T04:24:05;16.30;96.80
17027;DHT22;8630;50.500;12.164;2022-07-29T04:26:33;16.40;96.80
17027;DHT22;8630;50.500;12.164;2022-07-29T04:29:00;16.60;96.90
17027;DHT22;8630;50.500;12.164;2022-07-29T04:31:28;16.70;96.70
17027;DHT22;8630;50.500;12.164;2022-07-29T04:33:55;16.90;96.70
17027;DHT22;8630;50.500;12.164;2022-07-29T04:36:24;17.00;96.50
17027;DHT22;8630;50.500;12.164;2022-07-29T04:38:51;17.20;96.50
17027;DHT22;8630;50.500;12.164;2022-07-29T04:41:19;17.60;96.40
17027;DHT22;8630;50.500;12.164;2022-07-29T04:43:46;18.00;95.80
17027;DHT22;8630;50.500;12.164;2022-07-29T04:46:14;18.20;95.30
17027;DHT22;8630;50.500;12.164;2022-07-29T04:48:41;18.30;95.10
17027;DHT22;8630;50.500;12.164;2022-07-29T04:51:08;18.40;94.90
17027;DHT22;8630;50.500;12.164;2022-07-29T04:53:35;18.40;94.70
17027;DHT22;8630;50.500;12.164;2022-07-29T04:56:03;18.50;94.70
17027;DHT22;8630;50.500;12.164;2022-07-29T04:58:34;18.50;94.40
17027;DHT22;8630;50.500;12.164;2022-07-29T05:01:01;18.60;94.20
17027;DHT22;8630;50.500;12.164;2022-07-29T05:03:28;18.80;94.10
17027;DHT22;8630;50.500;12.164;2022-07-29T05:05:55;19.00;93.90
17027;DHT22;8630;50.500;12.164;2022-07-29T05:08:22;19.20;93.50
17027;DHT22;8630;50.500;12.164;2022-07-29T05:10:49;19.30;93.10
17027;DHT22;8630;50.500;12.164;2022-07-29T05:13:16;19.50;92.90
17027;DHT22;8630;50.500;12.164;2022-07-29T05:15:44;19.50;92.60
17027;DHT22;8630;50.500;12.164;2022-07-29T05:18:11;19.60;92.30
17027;DHT22;8630;50.500;12.164;2022-07-29T05:20:39;19.70;92.10
17027;DHT22;8630;50.500;12.164;2022-07-29T05:23:07;19.80;91.90
17027;DHT22;8630;50.500;12.164;2022-07-29T05:25:34;19.90;91.70
17027;DHT22;8630;50.500;12.164;2022-07-29T05:28:01;20.00;91.50
17027;DHT22;8630;50.500;12.164;2022-07-29T05:30:28;20.00;91.30
17027;DHT22;8630;50.500;12.164;2022-07-29T05:32:57;20.10;91.20
17027;DHT22;8630;50.500;12.164;2022-07-29T05:35:24;20.20;90.90
17027;DHT22;8630;50.500;12.164;2022-07-29T05:37:51;20.30;90.70
17027;DHT22;8630;50.500;12.164;2022-07-29T05:40:18;20.60;90.20
17027;DHT22;8630;50.500;12.164;2022-07-29T05:42:45;20.70;89.50
17027;DHT22;8630;50.500;12.164;2022-07-29T05:45:13;20.70;88.80
17027;DHT22;8630;50.500;12.164;2022-07-29T05:47:40;20.70;88.40
17027;DHT22;8630;50.500;12.164;2022-07-29T05:50:09;20.70;88.40
17027;DHT22;8630;50.500;12.164;2022-07-29T05:52:36;20.70;88.50
17027;DHT22;8630;50.500;12.164;2022-07-29T05:55:04;20.70;88.60
17027;DHT22;8630;50.500;12.164;2022-07-29T05:57:32;20.60;88.90
17027;DHT22;8630;50.500;12.164;2022-07-29T06:00:00;20.60;89.10
17027;DHT22;8630;50.500;12.164;2022-07-29T06:02:38;20.60;89.00
17027;DHT22;8630;50.500;12.164;2022-07-29T06:05:05;20.60;88.90
17027;DHT22;8630;50.500;12.164;2022-07-29T06:07:34;20.70;88.60
17027;DHT22;8630;50.500;12.164;2022-07-29T06:10:01;20.80;88.00
17027;DHT22;8630;50.500;12.164;2022-07-29T06:12:28;21.00;87.60
17027;DHT22;8630;50.500;12.164;2022-07-29T06:14:56;21.30;87.00
17027;DHT22;8630;50.500;12.164;2022-07-29T06:17:23;21.60;86.00
17027;DHT22;8630;50.500;12.164;2022-07-29T06:19:51;21.80;84.90
17027;DHT22;8630;50.500;12.164;2022-07-29T06:22:18;22.00;83.50
17027;DHT22;8630;50.500;12.164;2022-07-29T06:24:46;22.10;82.70
17027;DHT22;8630;50.500;12.164;2022-07-29T06:27:13;22.20;81.70
17027;DHT22;8630;50.500;12.164;2022-07-29T06:29:40;22.20;80.90
17027;DHT22;8630;50.500;12.164;2022-07-29T06:32:11;22.30;80.70
17027;DHT22;8630;50.500;12.164;2022-07-29T06:34:38;22.30;79.50
17027;DHT22;8630;50.500;12.164;2022-07-29T06:37:06;22.20;78.40
17027;DHT22;8630;50.500;12.164;2022-07-29T06:39:34;22.30;77.90
17027;DHT22;8630;50.500;12.164;2022-07-29T06:42:06;22.30;77.80
17027;DHT22;8630;50.500;12.164;2022-07-29T06:44:35;22.40;77.00
17027;DHT22;8630;50.500;12.164;2022-07-29T06:47:02;22.60;76.10
17027;DHT22;8630;50.500;12.164;2022-07-29T06:49:32;22.80;74.70
17027;DHT22;8630;50.500;12.164;2022-07-29T06:51:59;23.00;73.60
17027;DHT22;8630;50.500;12.164;2022-07-29T06:54:26;23.00;73.10
17027;DHT22;8630;50.500;12.164;2022-07-29T06:56:53;23.20;72.70
17027;DHT22;8630;50.500;12.164;2022-07-29T06:59:21;23.40;71.80
17027;DHT22;8630;50.500;12.164;2022-07-29T07:01:48;23.50;70.50
17027;DHT22;8630;50.500;12.164;2022-07-29T07:04:15;23.70;69.50
17027;DHT22;8630;50.500;12.164;2022-07-29T07:06:42;23.90;68.70
17027;DHT22;8630;50.500;12.164;2022-07-29T07:09:12;24.20;67.70
17027;DHT22;8630;50.500;12.164;2022-07-29T07:11:40;24.50;66.40
17027;DHT22;8630;50.500;12.164;2022-07-29T07:14:07;24.70;64.90
17027;DHT22;8630;50.500;12.164;2022-07-29T07:16:36;24.90;63.30
17027;DHT22;8630;50.500;12.164;2022-07-29T07:19:04;25.00;61.50
17027;DHT22;8630;50.500;12.164;2022-07-29T07:21:32;25.10;61.10
17027;DHT22;8630;50.500;12.164;2022-07-29T07:24:01;25.10;60.10
17027;DHT22;8630;50.500;12.164;2022-07-29T07:26:29;25.20;59.70
17027;DHT22;8630;50.500;12.164;2022-07-29T07:28:56;25.30;59.50
17027;DHT22;8630;50.500;12.164;2022-07-29T07:31:23;25.40;59.40
17027;DHT22;8630;50.500;12.164;2022-07-29T07:33:51;25.40;58.80
17027;DHT22;8630;50.500;12.164;2022-07-29T07:36:19;25.30;58.60
17027;DHT22;8630;50.500;12.164;2022-07-29T07:38:46;25.40;58.70
17027;DHT22;8630;50.500;12.164;2022-07-29T07:41:15;25.40;58.40
17027;DHT22;8630;50.500;12.164;2022-07-29T07:43:42;25.40;58.50
17027;DHT22;8630;50.500;12.164;2022-07-29T07:46:09;25.30;58.70
17027;DHT22;8630;50.500;12.164;2022-07-29T07:48:36;25.30;58.60
17027;DHT22;8630;50.500;12.164;2022-07-29T07:51:04;25.30;58.60
17027;DHT22;8630;50.500;12.164;2022-07-29T07:53:33;25.30;58.50
17027;DHT22;8630;50.500;12.164;2022-07-29T07:56:00;25.30;59.10
17027;DHT22;8630;50.500;12.164;2022-07-29T07:58:28;25.40;59.10
17027;DHT22;8630;50.500;12.164;2022-07-29T08:00:55;25.70;59.10
17027;DHT22;8630;50.500;12.164;2022-07-29T08:03:22;26.00;58.70
17027;DHT22;8630;50.500;12.164;2022-07-29T08:05:50;26.30;57.90
17027;DHT22;8630;50.500;12.164;2022-07-29T08:08:18;26.60;57.10
17027;DHT22;8630;50.500;12.164;2022-07-29T08:10:46;26.80;56.20
17027;DHT22;8630;50.500;12.164;2022-07-29T08:13:20;27.00;55.70
17027;DHT22;8630;50.500;12.164;2022-07-29T08:15:48;27.40;55.40
17027;DHT22;8630;50.500;12.164;2022-07-29T08:18:25;27.70;54.50
17027;DHT22;8630;50.500;12.164;2022-07-29T08:20:52;28.00;53.60
17027;DHT22;8630;50.500;12.164;2022-07-29T08:23:21;28.20;52.60
17027;DHT22;8630;50.500;12.164;2022-07-29T08:25:49;28.40;51.90
17027;DHT22;8630;50.500;12.164;2022-07-29T08:28:16;28.50;51.50
17027;DHT22;8630;50.500;12.164;2022-07-29T08:30:45;28.70;50.90
17027;DHT22;8630;50.500;12.164;2022-07-29T08:33:13;28.90;50.40
17027;DHT22;8630;50.500;12.164;2022-07-29T08:35:40;29.00;49.90
17027;DHT22;8630;50.500;12.164;2022-07-29T08:38:07;29.20;49.60
17027;DHT22;8630;50.500;12.164;2022-07-29T08:40:37;29.30;49.10
17027;DHT22;8630;50.500;12.164;2022-07-29T08:43:05;29.40;49.00
17027;DHT22;8630;50.500;12.164;2022-07-29T08:45:42;29.50;48.70
17027;DHT22;8630;50.500;12.164;2022-07-29T08:48:12;29.40;48.10
17027;DHT22;8630;50.500;12.164;2022-07-29T08:50:41;29.30;48.50
17027;DHT22;8630;50.500;12.164;2022-07-29T08:53:11;29.30;48.70
17027;DHT22;8630;50.500;12.164;2022-07-29T08:55:40;29.40;48.80
17027;DHT22;8630;50.500;12.164;2022-07-29T08:58:09;29.70;48.30
17027;DHT22;8630;50.500;12.164;2022-07-29T09:00:43;30.00;47.60
17027;DHT22;8630;50.500;12.164;2022-07-29T09:03:14;30.30;47.10
17027;DHT22;8630;50.500;12.164;2022-07-29T09:05:42;30.80;46.80
17027;DHT22;8630;50.500;12.164;2022-07-29T09:08:09;31.20;46.20
17027;DHT22;8630;50.500;12.164;2022-07-29T09:10:37;31.50;45.80
17027;DHT22;8630;50.500;12.164;2022-07-29T09:13:06;31.60;45.10
17027;DHT22;8630;50.500;12.164;2022-07-29T09:15:33;31.60;44.70
17027;DHT22;8630;50.500;12.164;2022-07-29T09:18:00;31.90;44.70
17027;DHT22;8630;50.500;12.164;2022-07-29T09:20:29;32.10;44.40
17027;DHT22;8630;50.500;12.164;2022-07-29T09:23:16;32.40;43.90
17027;DHT22;8630;50.500;12.164;2022-07-29T09:25:43;32.60;43.30
17027;DHT22;8630;50.500;12.164;2022-07-29T09:28:13;33.00;43.00
17027;DHT22;8630;50.500;12.164;2022-07-29T09:30:50;33.20;42.40
17027;DHT22;8630;50.500;12.164;2022-07-29T09:33:18;33.30;42.00
17027;DHT22;8630;50.500;12.164;2022-07-29T09:35:45;33.40;42.00
17027;DHT22;8630;50.500;12.164;2022-07-29T09:38:13;33.20;41.80
17027;DHT22;8630;50.500;12.164;2022-07-29T09:40:40;32.80;41.30
17027;DHT22;8630;50.500;12.164;2022-07-29T09:43:12;32.40;41.90
17027;DHT22;8630;50.500;12.164;2022-07-29T09:45:40;32.10;42.50
17027;DHT22;8630;50.500;12.164;2022-07-29T09:48:17;31.90;42.80
17027;DHT22;8630;50.500;12.164;2022-07-29T09:50:46;31.60;42.90
17027;DHT22;8630;50.500;12.164;2022-07-29T09:53:30;31.40;43.30
17027;DHT22;8630;50.500;12.164;2022-07-29T09:55:57;31.10;43.80
17027;DHT22;8630;50.500;12.164;2022-07-29T09:58:27;30.90;44.10
17027;DHT22;8630;50.500;12.164;2022-07-29T10:00:55;30.80;44.60
17027;DHT22;8630;50.500;12.164;2022-07-29T10:03:24;30.70;44.90
17027;DHT22;8630;50.500;12.164;2022-07-29T10:06:08;30.80;45.20
17027;DHT22;8630;50.500;12.164;2022-07-29T10:08:36;30.90;45.30
17027;DHT22;8630;50.500;12.164;2022-07-29T10:11:15;31.10;45.40
17027;DHT22;8630;50.500;12.164;2022-07-29T10:13:46;31.30;45.40
17027;DHT22;8630;50.500;12.164;2022-07-29T10:16:14;31.60;45.30
17027;DHT22;8630;50.500;12.164;2022-07-29T10:18:42;32.00;44.90
17027;DHT22;8630;50.500;12.164;2022-07-29T10:21:10;32.30;44.40
17027;DHT22;8630;50.500;12.164;2022-07-29T10:23:37;32.60;44.20
17027;DHT22;8630;50.500;12.164;2022-07-29T10:26:05;32.80;44.00
17027;DHT22;8630;50.500;12.164;2022-07-29T10:28:33;33.00;43.50
17027;DHT22;8630;50.500;12.164;2022-07-29T10:31:05;33.30;43.00
17027;DHT22;8630;50.500;12.164;2022-07-29T10:33:43;33.30;42.70
17027;DHT22;8630;50.500;12.164;2022-07-29T10:36:22;33.40;43.00
17027;DHT22;8630;50.500;12.164;2022-07-29T10:38:57;33.60;42.50
17027;DHT22;8630;50.500;12.164;2022-07-29T10:41:39;33.70;42.10
17027;DHT22;8630;50.500;12.164;2022-07-29T10:44:17;33.90;41.90
17027;DHT22;8630;50.500;12.164;2022-07-29T10:46:46;33.90;41.60
17027;DHT22;8630;50.500;12.164;2022-07-29T10:49:15;33.60;41.60
17027;DHT22;8630;50.500;12.164;2022-07-29T10:52:04;33.30;41.90
17027;DHT22;8630;50.500;12.164;2022-07-29T10:54:42;33.10;42.50
17027;DHT22;8630;50.500;12.164;2022-07-29T10:57:22;32.90;42.20
17027;DHT22;8630;50.500;12.164;2022-07-29T11:02:43;32.80;42.60
17027;DHT22;8630;50.500;12.164;2022-07-29T11:05:11;32.90;42.20
17027;DHT22;8630;50.500;12.164;2022-07-29T11:08:16;33.00;42.00
17027;DHT22;8630;50.500;12.164;2022-07-29T11:10:27;33.10;41.90
17027;DHT22;8630;50.500;12.164;2022-07-29T11:12:54;33.10;41.80
17027;DHT22;8630;50.500;12.164;2022-07-29T11:15:22;33.10;41.80
17027;DHT22;8630;50.500;12.164;2022-07-29T11:18:08;33.20;41.80
17027;DHT22;8630;50.500;12.164;2022-07-29T11:20:40;33.50;41.40
17027;DHT22;8630;50.500;12.164;2022-07-29T11:23:24;33.60;41.10
17027;DHT22;8630;50.500;12.164;2022-07-29T11:26:14;33.50;40.90
17027;DHT22;8630;50.500;12.164;2022-07-29T11:29:00;33.40;41.00
17027;DHT22;8630;50.500;12.164;2022-07-29T11:31:36;33.50;41.10
17027;DHT22;8630;50.500;12.164;2022-07-29T11:34:19;33.60;41.10
17027;DHT22;8630;50.500;12.164;2022-07-29T11:37:15;33.70;40.70
17027;DHT22;8630;50.500;12.164;2022-07-29T11:39:44;33.70;40.60
17027;DHT22;8630;50.500;12.164;2022-07-29T11:42:37;33.60;40.70
17027;DHT22;8630;50.500;12.164;2022-07-29T11:45:06;33.60;40.90
17027;DHT22;8630;50.500;12.164;2022-07-29T11:47:36;33.70;40.70
17027;DHT22;8630;50.500;12.164;2022-07-29T11:50:06;33.90;40.60
17027;DHT22;8630;50.500;12.164;2022-07-29T11:52:35;34.20;40.10
17027;DHT22;8630;50.500;12.164;2022-07-29T11:55:09;34.40;40.20
17027;DHT22;8630;50.500;12.164;2022-07-29T11:57:45;34.60;39.60
17027;DHT22;8630;50.500;12.164;2022-07-29T12:00:20;34.60;39.50
17027;DHT22;8630;50.500;12.164;2022-07-29T12:02:49;34.60;39.10
17027;DHT22;8630;50.500;12.164;2022-07-29T12:05:18;34.60;38.90
17027;DHT22;8630;50.500;12.164;2022-07-29T12:07:47;34.80;39.00
17027;DHT22;8630;50.500;12.164;2022-07-29T12:10:15;34.80;38.80
17027;DHT22;8630;50.500;12.164;2022-07-29T12:12:42;34.80;39.10
17027;DHT22;8630;50.500;12.164;2022-07-29T12:15:16;34.80;39.00
17027;DHT22;8630;50.500;12.164;2022-07-29T12:17:46;34.90;38.30
17027;DHT22;8630;50.500;12.164;2022-07-29T12:20:14;35.00;38.50
17027;DHT22;8630;50.500;12.164;2022-07-29T12:22:50;35.00;38.10
17027;DHT22;8630;50.500;12.164;2022-07-29T12:25:19;34.80;38.30
17027;DHT22;8630;50.500;12.164;2022-07-29T12:27:58;34.80;38.10
17027;DHT22;8630;50.500;12.164;2022-07-29T12:30:35;34.90;38.00
17027;DHT22;8630;50.500;12.164;2022-07-29T12:33:18;34.90;38.00
17027;DHT22;8630;50.500;12.164;2022-07-29T12:35:48;35.00;37.80
17027;DHT22;8630;50.500;12.164;2022-07-29T12:38:18;35.10;37.90
17027;DHT22;8630;50.500;12.164;2022-07-29T12:40:47;35.10;37.60
17027;DHT22;8630;50.500;12.164;2022-07-29T12:43:16;35.00;37.60
17027;DHT22;8630;50.500;12.164;2022-07-29T12:45:45;34.70;37.50
17027;DHT22;8630;50.500;12.164;2022-07-29T12:48:14;34.50;37.70
17027;DHT22;8630;50.500;12.164;2022-07-29T12:50:55;34.20;37.80
17027;DHT22;8630;50.500;12.164;2022-07-29T12:53:24;34.00;38.00
17027;DHT22;8630;50.500;12.164;2022-07-29T12:55:52;33.70;38.40
17027;DHT22;8630;50.500;12.164;2022-07-29T12:58:30;33.60;38.60
17027;DHT22;8630;50.500;12.164;2022-07-29T13:01:06;33.40;38.70
17027;DHT22;8630;50.500;12.164;2022-07-29T13:03:48;33.20;39.00
17027;DHT22;8630;50.500;12.164;2022-07-29T13:06:34;33.00;39.50
17027;DHT22;8630;50.500;12.164;2022-07-29T13:09:07;32.80;40.00
17027;DHT22;8630;50.500;12.164;2022-07-29T13:11:36;32.40;40.40
17027;DHT22;8630;50.500;12.164;2022-07-29T13:14:04;32.20;40.90
17027;DHT22;8630;50.500;12.164;2022-07-29T13:16:32;31.80;41.90
17027;DHT22;8630;50.500;12.164;2022-07-29T13:19:09;31.30;43.00
17027;DHT22;8630;50.500;12.164;2022-07-29T13:21:37;30.70;44.40
17027;DHT22;8630;50.500;12.164;2022-07-29T13:24:07;30.00;45.40
17027;DHT22;8630;50.500;12.164;2022-07-29T13:26:36;29.50;46.50
17027;DHT22;8630;50.500;12.164;2022-07-29T13:29:06;29.00;48.50
17027;DHT22;8630;50.500;12.164;2022-07-29T13:31:33;28.50;51.10
17027;DHT22;8630;50.500;12.164;2022-07-29T13:34:00;27.90;54.00
17027;DHT22;8630;50.500;12.164;2022-07-29T13:36:28;27.30;56.80
17027;DHT22;8630;50.500;12.164;2022-07-29T13:38:55;26.70;59.80
17027;DHT22;8630;50.500;12.164;2022-07-29T13:41:24;26.10;64.20
17027;DHT22;8630;50.500;12.164;2022-07-29T13:43:53;25.60;68.00
17027;DHT22;8630;50.500;12.164;2022-07-29T13:46:20;25.00;71.20
17027;DHT22;8630;50.500;12.164;2022-07-29T13:48:47;24.40;74.90
17027;DHT22;8630;50.500;12.164;2022-07-29T13:51:14;23.90;78.70
17027;DHT22;8630;50.500;12.164;2022-07-29T13:53:41;23.40;81.00
17027;DHT22;8630;50.500;12.164;2022-07-29T13:56:08;23.00;83.80
17027;DHT22;8630;50.500;12.164;2022-07-29T13:58:37;22.70;85.90
17027;DHT22;8630;50.500;12.164;2022-07-29T14:01:04;22.60;87.80
17027;DHT22;8630;50.500;12.164;2022-07-29T14:03:31;22.30;88.90
17027;DHT22;8630;50.500;12.164;2022-07-29T14:05:58;22.20;90.00
17027;DHT22;8630;50.500;12.164;2022-07-29T14:08:26;22.00;90.40
17027;DHT22;8630;50.500;12.164;2022-07-29T14:10:53;21.80;90.90
17027;DHT22;8630;50.500;12.164;2022-07-29T14:13:20;21.60;91.70
17027;DHT22;8630;50.500;12.164;2022-07-29T14:15:49;21.40;92.70
17027;DHT22;8630;50.500;12.164;2022-07-29T14:18:16;21.30;93.60
17027;DHT22;8630;50.500;12.164;2022-07-29T14:20:43;21.30;94.20
17027;DHT22;8630;50.500;12.164;2022-07-29T14:23:10;21.20;94.90
17027;DHT22;8630;50.500;12.164;2022-07-29T14:25:37;21.20;95.80
17027;DHT22;8630;50.500;12.164;2022-07-29T14:28:04;21.40;96.70
17027;DHT22;8630;50.500;12.164;2022-07-29T14:30:31;21.60;97.10
17027;DHT22;8630;50.500;12.164;2022-07-29T14:33:00;21.80;97.20
17027;DHT22;8630;50.500;12.164;2022-07-29T14:35:28;22.10;97.50
17027;DHT22;8630;50.500;12.164;2022-07-29T14:37:55;22.30;97.50
17027;DHT22;8630;50.500;12.164;2022-07-29T14:40:23;22.50;97.50
17027;DHT22;8630;50.500;12.164;2022-07-29T14:42:51;22.60;97.30
17027;DHT22;8630;50.500;12.164;2022-07-29T14:45:18;22.80;97.20
17027;DHT22;8630;50.500;12.164;2022-07-29T14:47:45;23.00;97.40
17027;DHT22;8630;50.500;12.164;2022-07-29T14:50:14;23.30;97.30
17027;DHT22;8630;50.500;12.164;2022-07-29T14:52:41;23.60;96.80
17027;DHT22;8630;50.500;12.164;2022-07-29T14:55:09;23.80;96.60
17027;DHT22;8630;50.500;12.164;2022-07-29T14:57:36;24.10;96.30
17027;DHT22;8630;50.500;12.164;2022-07-29T15:00:05;24.30;96.00
17027;DHT22;8630;50.500;12.164;2022-07-29T15:02:32;24.60;95.80
17027;DHT22;8630;50.500;12.164;2022-07-29T15:04:59;24.90;95.30
17027;DHT22;8630;50.500;12.164;2022-07-29T15:07:28;25.30;94.50
17027;DHT22;8630;50.500;12.164;2022-07-29T15:09:56;25.50;93.40
17027;DHT22;8630;50.500;12.164;2022-07-29T15:12:23;25.70;92.80
17027;DHT22;8630;50.500;12.164;2022-07-29T15:14:50;25.80;92.40
17027;DHT22;8630;50.500;12.164;2022-07-29T15:17:17;26.00;92.10
17027;DHT22;8630;50.500;12.164;2022-07-29T15:19:46;26.00;91.20
17027;DHT22;8630;50.500;12.164;2022-07-29T15:22:14;25.90;90.70
17027;DHT22;8630;50.500;12.164;2022-07-29T15:24:43;25.80;90.80
17027;DHT22;8630;50.500;12.164;2022-07-29T15:27:10;25.80;90.80
17027;DHT22;8630;50.500;12.164;2022-07-29T15:29:39;25.90;91.00
17027;DHT22;8630;50.500;12.164;2022-07-29T15:32:07;26.00;91.30
17027;DHT22;8630;50.500;12.164;2022-07-29T15:34:34;26.10;91.30
17027;DHT22;8630;50.500;12.164;2022-07-29T15:37:01;26.30;90.50
17027;DHT22;8630;50.500;12.164;2022-07-29T15:39:28;26.30;90.00
17027;DHT22;8630;50.500;12.164;2022-07-29T15:41:57;26.30;89.80
17027;DHT22;8630;50.500;12.164;2022-07-29T15:44:26;26.30;88.80
17027;DHT22;8630;50.500;12.164;2022-07-29T15:46:53;26.30;87.30
17027;DHT22;8630;50.500;12.164;2022-07-29T15:49:32;26.30;86.90
17027;DHT22;8630;50.500;12.164;2022-07-29T15:52:02;26.40;86.70